Bafoussam, Cameroon
Current Conditions -  °F | °C
As of 4:00 PM on Saturday 25 Oct 2014 (Local Time) from FKKD Reporting Station
Broken Clouds Broken Clouds  
Wind Chill: 81°   Ceiling: 11000
Heat Index: 86°   Visibility: 5mi
Dew Point: 75°   Wind: 0mph
Humidity: 84%   Direction: NA
Pressure: 29.74"   Gusts: NA
Location:  5.49°N, 10.41°E
Report Text: FKKD 251500Z 00000KT 8000 SCT014 FEW016CB BKN110 27/24 Q1007 NOSIG
Loading
Personal Weather Stations






























Interactive Weather Map
Tropical Storm Tracking
New forecast layout! Learn more

10-Day Weather Forecast

Advertisements
Track Severe Weather on mobile